Aviation Digital Data Service (ADDS)

Output produced by METARs form (1202 UTC 12 February 2016)
found at http://aviationweather.gov/adds/metars/
 
KPOU 121122Z 1212/1312 00000KT P6SM SKC 
     FM121500 23004KT P6SM SCT250 
     FM122100 20007KT P6SM SCT080 
     FM130700 25004KT P6SM VCSH SCT040 BKN080 
     FM131100 29012KT P6SM BKN100